sensor_id;sensor_type;location;lat;lon;timestamp;P1;durP1;ratioP1;P2;durP2;ratioP2
944;SDS011;459;48.676;9.034;2023-03-31T00:02:16;7.57;;;2.47;;
944;SDS011;459;48.676;9.034;2023-03-31T00:04:45;4.60;;;2.10;;
944;SDS011;459;48.676;9.034;2023-03-31T00:07:16;3.43;;;2.03;;
944;SDS011;459;48.676;9.034;2023-03-31T00:09:46;4.87;;;2.40;;
944;SDS011;459;48.676;9.034;2023-03-31T00:12:12;5.03;;;2.60;;
944;SDS011;459;48.676;9.034;2023-03-31T00:14:37;4.80;;;2.37;;
944;SDS011;459;48.676;9.034;2023-03-31T00:17:02;4.13;;;2.80;;
944;SDS011;459;48.676;9.034;2023-03-31T00:19:28;8.53;;;2.60;;
944;SDS011;459;48.676;9.034;2023-03-31T00:21:53;4.97;;;3.03;;
944;SDS011;459;48.676;9.034;2023-03-31T00:24:19;3.03;;;2.40;;
944;SDS011;459;48.676;9.034;2023-03-31T00:26:44;7.80;;;2.97;;
944;SDS011;459;48.676;9.034;2023-03-31T00:29:11;3.30;;;3.00;;
944;SDS011;459;48.676;9.034;2023-03-31T00:31:36;2.50;;;2.17;;
944;SDS011;459;48.676;9.034;2023-03-31T00:34:02;3.07;;;2.50;;
944;SDS011;459;48.676;9.034;2023-03-31T00:36:28;4.60;;;2.23;;
944;SDS011;459;48.676;9.034;2023-03-31T00:38:54;2.73;;;2.23;;
944;SDS011;459;48.676;9.034;2023-03-31T00:41:20;2.87;;;2.10;;
944;SDS011;459;48.676;9.034;2023-03-31T00:44:20;6.40;;;2.97;;
944;SDS011;459;48.676;9.034;2023-03-31T00:46:51;9.20;;;2.57;;
944;SDS011;459;48.676;9.034;2023-03-31T00:49:23;6.00;;;2.23;;
944;SDS011;459;48.676;9.034;2023-03-31T00:51:49;4.03;;;2.40;;
944;SDS011;459;48.676;9.034;2023-03-31T00:54:16;2.50;;;2.23;;
944;SDS011;459;48.676;9.034;2023-03-31T00:56:43;3.47;;;2.13;;
944;SDS011;459;48.676;9.034;2023-03-31T00:59:12;4.40;;;2.00;;
944;SDS011;459;48.676;9.034;2023-03-31T01:01:38;2.50;;;1.93;;
944;SDS011;459;48.676;9.034;2023-03-31T01:04:06;5.73;;;2.63;;
944;SDS011;459;48.676;9.034;2023-03-31T01:06:33;7.70;;;2.80;;
944;SDS011;459;48.676;9.034;2023-03-31T01:09:00;4.00;;;2.17;;
944;SDS011;459;48.676;9.034;2023-03-31T01:11:30;3.63;;;2.03;;
944;SDS011;459;48.676;9.034;2023-03-31T01:13:55;5.50;;;2.50;;
944;SDS011;459;48.676;9.034;2023-03-31T01:16:21;4.73;;;2.40;;
944;SDS011;459;48.676;9.034;2023-03-31T01:18:47;6.23;;;2.97;;
944;SDS011;459;48.676;9.034;2023-03-31T01:26:48;3.10;;;1.70;;
944;SDS011;459;48.676;9.034;2023-03-31T01:32:01;3.77;;;2.40;;
944;SDS011;459;48.676;9.034;2023-03-31T01:42:37;5.63;;;2.13;;
944;SDS011;459;48.676;9.034;2023-03-31T01:45:15;8.47;;;2.90;;
944;SDS011;459;48.676;9.034;2023-03-31T01:47:48;4.63;;;3.33;;
944;SDS011;459;48.676;9.034;2023-03-31T01:52:45;6.53;;;2.47;;
944;SDS011;459;48.676;9.034;2023-03-31T01:55:19;4.77;;;2.83;;
944;SDS011;459;48.676;9.034;2023-03-31T01:57:50;5.13;;;2.17;;
944;SDS011;459;48.676;9.034;2023-03-31T02:01:01;4.80;;;1.80;;
944;SDS011;459;48.676;9.034;2023-03-31T02:03:10;11.20;;;3.03;;
944;SDS011;459;48.676;9.034;2023-03-31T02:06:02;6.00;;;3.17;;
944;SDS011;459;48.676;9.034;2023-03-31T02:08:25;2.70;;;2.17;;
944;SDS011;459;48.676;9.034;2023-03-31T02:10:53;4.27;;;2.83;;
944;SDS011;459;48.676;9.034;2023-03-31T02:13:19;5.63;;;2.50;;
944;SDS011;459;48.676;9.034;2023-03-31T02:15:46;4.60;;;2.63;;
944;SDS011;459;48.676;9.034;2023-03-31T02:18:15;7.00;;;3.00;;
944;SDS011;459;48.676;9.034;2023-03-31T02:20:43;3.07;;;2.77;;
944;SDS011;459;48.676;9.034;2023-03-31T02:23:11;7.13;;;2.90;;
944;SDS011;459;48.676;9.034;2023-03-31T02:25:40;6.00;;;3.10;;
944;SDS011;459;48.676;9.034;2023-03-31T02:28:09;7.00;;;2.77;;
944;SDS011;459;48.676;9.034;2023-03-31T02:30:40;4.17;;;3.10;;
944;SDS011;459;48.676;9.034;2023-03-31T02:33:07;4.33;;;2.50;;
944;SDS011;459;48.676;9.034;2023-03-31T02:35:32;7.27;;;2.87;;
944;SDS011;459;48.676;9.034;2023-03-31T02:37:59;6.33;;;3.27;;
944;SDS011;459;48.676;9.034;2023-03-31T02:40:24;6.83;;;2.80;;
944;SDS011;459;48.676;9.034;2023-03-31T02:42:51;3.27;;;2.97;;
944;SDS011;459;48.676;9.034;2023-03-31T02:48:01;4.67;;;3.67;;
944;SDS011;459;48.676;9.034;2023-03-31T02:50:27;4.03;;;2.40;;
944;SDS011;459;48.676;9.034;2023-03-31T02:52:59;4.57;;;3.10;;
944;SDS011;459;48.676;9.034;2023-03-31T02:55:31;3.57;;;2.83;;
944;SDS011;459;48.676;9.034;2023-03-31T02:58:09;4.50;;;2.97;;
944;SDS011;459;48.676;9.034;2023-03-31T03:03:09;6.10;;;2.47;;
944;SDS011;459;48.676;9.034;2023-03-31T03:10:59;7.20;;;3.40;;
944;SDS011;459;48.676;9.034;2023-03-31T03:13:27;3.37;;;2.70;;
944;SDS011;459;48.676;9.034;2023-03-31T03:15:56;9.13;;;4.37;;
944;SDS011;459;48.676;9.034;2023-03-31T03:18:24;4.20;;;3.07;;
944;SDS011;459;48.676;9.034;2023-03-31T03:20:49;5.20;;;3.00;;
944;SDS011;459;48.676;9.034;2023-03-31T03:23:15;4.03;;;3.63;;
944;SDS011;459;48.676;9.034;2023-03-31T03:25:40;5.63;;;3.77;;
944;SDS011;459;48.676;9.034;2023-03-31T03:28:05;4.20;;;3.20;;
944;SDS011;459;48.676;9.034;2023-03-31T03:30:31;7.10;;;3.40;;
944;SDS011;459;48.676;9.034;2023-03-31T03:32:56;5.80;;;2.83;;
944;SDS011;459;48.676;9.034;2023-03-31T03:35:23;6.73;;;3.20;;
944;SDS011;459;48.676;9.034;2023-03-31T03:37:48;5.17;;;3.60;;
944;SDS011;459;48.676;9.034;2023-03-31T03:40:13;3.67;;;3.23;;
944;SDS011;459;48.676;9.034;2023-03-31T03:42:39;4.83;;;3.10;;
944;SDS011;459;48.676;9.034;2023-03-31T03:45:04;4.67;;;3.17;;
944;SDS011;459;48.676;9.034;2023-03-31T03:47:30;4.60;;;3.07;;
944;SDS011;459;48.676;9.034;2023-03-31T03:49:55;4.00;;;3.00;;
944;SDS011;459;48.676;9.034;2023-03-31T03:52:20;6.70;;;3.33;;
944;SDS011;459;48.676;9.034;2023-03-31T03:54:45;6.60;;;3.80;;
944;SDS011;459;48.676;9.034;2023-03-31T03:57:10;6.53;;;3.37;;
944;SDS011;459;48.676;9.034;2023-03-31T03:59:36;6.10;;;3.73;;
944;SDS011;459;48.676;9.034;2023-03-31T04:02:01;6.03;;;3.90;;
944;SDS011;459;48.676;9.034;2023-03-31T04:04:26;3.80;;;3.40;;
944;SDS011;459;48.676;9.034;2023-03-31T04:06:51;9.87;;;4.13;;
944;SDS011;459;48.676;9.034;2023-03-31T04:09:16;5.70;;;3.20;;
944;SDS011;459;48.676;9.034;2023-03-31T04:11:42;7.30;;;3.63;;
944;SDS011;459;48.676;9.034;2023-03-31T04:14:07;7.60;;;4.37;;
944;SDS011;459;48.676;9.034;2023-03-31T04:16:32;9.87;;;5.40;;
944;SDS011;459;48.676;9.034;2023-03-31T04:18:58;4.00;;;3.60;;
944;SDS011;459;48.676;9.034;2023-03-31T04:21:27;7.03;;;3.60;;
944;SDS011;459;48.676;9.034;2023-03-31T04:23:54;5.63;;;3.77;;
944;SDS011;459;48.676;9.034;2023-03-31T04:26:26;5.60;;;4.13;;
944;SDS011;459;48.676;9.034;2023-03-31T04:28:58;7.53;;;4.10;;
944;SDS011;459;48.676;9.034;2023-03-31T04:31:24;5.87;;;3.90;;
944;SDS011;459;48.676;9.034;2023-03-31T04:33:50;10.07;;;4.50;;
944;SDS011;459;48.676;9.034;2023-03-31T04:36:15;7.40;;;4.23;;
944;SDS011;459;48.676;9.034;2023-03-31T04:38:48;8.07;;;4.00;;
944;SDS011;459;48.676;9.034;2023-03-31T04:41:14;6.27;;;3.60;;
944;SDS011;459;48.676;9.034;2023-03-31T04:43:40;9.77;;;5.07;;
944;SDS011;459;48.676;9.034;2023-03-31T04:46:05;7.80;;;4.17;;
944;SDS011;459;48.676;9.034;2023-03-31T04:48:30;6.67;;;4.03;;
944;SDS011;459;48.676;9.034;2023-03-31T04:50:55;5.00;;;3.70;;
944;SDS011;459;48.676;9.034;2023-03-31T04:53:21;5.20;;;4.23;;
944;SDS011;459;48.676;9.034;2023-03-31T04:55:47;8.00;;;4.57;;
944;SDS011;459;48.676;9.034;2023-03-31T04:58:12;7.13;;;4.27;;
944;SDS011;459;48.676;9.034;2023-03-31T05:00:38;8.40;;;4.20;;
944;SDS011;459;48.676;9.034;2023-03-31T05:03:03;6.60;;;3.90;;
944;SDS011;459;48.676;9.034;2023-03-31T05:05:28;6.28;;;4.30;;
944;SDS011;459;48.676;9.034;2023-03-31T05:07:54;13.30;;;5.13;;
944;SDS011;459;48.676;9.034;2023-03-31T05:10:20;8.40;;;4.70;;
944;SDS011;459;48.676;9.034;2023-03-31T05:12:45;6.00;;;4.70;;
944;SDS011;459;48.676;9.034;2023-03-31T05:15:11;6.87;;;5.17;;
944;SDS011;459;48.676;9.034;2023-03-31T05:17:36;10.33;;;6.20;;
944;SDS011;459;48.676;9.034;2023-03-31T05:20:02;7.07;;;5.87;;
944;SDS011;459;48.676;9.034;2023-03-31T05:22:32;5.73;;;5.23;;
944;SDS011;459;48.676;9.034;2023-03-31T05:24:57;5.97;;;5.07;;
944;SDS011;459;48.676;9.034;2023-03-31T05:27:23;8.20;;;5.57;;
944;SDS011;459;48.676;9.034;2023-03-31T05:29:48;10.77;;;5.17;;
944;SDS011;459;48.676;9.034;2023-03-31T05:32:13;7.37;;;5.77;;
944;SDS011;459;48.676;9.034;2023-03-31T05:34:38;9.70;;;5.00;;
944;SDS011;459;48.676;9.034;2023-03-31T05:37:03;9.40;;;5.60;;
944;SDS011;459;48.676;9.034;2023-03-31T05:39:28;12.60;;;5.70;;
944;SDS011;459;48.676;9.034;2023-03-31T05:41:57;9.97;;;6.77;;
944;SDS011;459;48.676;9.034;2023-03-31T05:44:22;8.47;;;6.40;;
944;SDS011;459;48.676;9.034;2023-03-31T05:46:47;8.80;;;6.70;;
944;SDS011;459;48.676;9.034;2023-03-31T05:49:12;11.63;;;6.33;;
944;SDS011;459;48.676;9.034;2023-03-31T05:51:40;9.17;;;6.97;;
944;SDS011;459;48.676;9.034;2023-03-31T05:54:05;10.83;;;6.30;;
944;SDS011;459;48.676;9.034;2023-03-31T05:56:30;8.70;;;6.50;;
944;SDS011;459;48.676;9.034;2023-03-31T05:58:55;11.82;;;6.38;;
944;SDS011;459;48.676;9.034;2023-03-31T06:01:20;8.90;;;6.43;;
944;SDS011;459;48.676;9.034;2023-03-31T06:03:47;13.63;;;6.30;;
944;SDS011;459;48.676;9.034;2023-03-31T06:06:12;11.73;;;6.93;;
944;SDS011;459;48.676;9.034;2023-03-31T06:08:39;10.43;;;6.90;;
944;SDS011;459;48.676;9.034;2023-03-31T06:11:05;9.30;;;6.70;;
944;SDS011;459;48.676;9.034;2023-03-31T06:13:30;13.10;;;7.33;;
944;SDS011;459;48.676;9.034;2023-03-31T06:15:56;10.10;;;6.70;;
944;SDS011;459;48.676;9.034;2023-03-31T06:18:22;13.40;;;7.50;;
944;SDS011;459;48.676;9.034;2023-03-31T06:20:47;9.03;;;6.90;;
944;SDS011;459;48.676;9.034;2023-03-31T06:23:12;8.40;;;6.60;;
944;SDS011;459;48.676;9.034;2023-03-31T06:25:37;9.50;;;6.40;;
944;SDS011;459;48.676;9.034;2023-03-31T06:28:03;10.57;;;7.87;;
944;SDS011;459;48.676;9.034;2023-03-31T06:30:30;10.57;;;7.10;;
944;SDS011;459;48.676;9.034;2023-03-31T06:32:55;9.87;;;7.07;;
944;SDS011;459;48.676;9.034;2023-03-31T06:35:20;11.70;;;6.33;;
944;SDS011;459;48.676;9.034;2023-03-31T06:37:45;8.77;;;7.80;;
944;SDS011;459;48.676;9.034;2023-03-31T06:40:11;9.47;;;7.73;;
944;SDS011;459;48.676;9.034;2023-03-31T06:42:36;10.73;;;8.00;;
944;SDS011;459;48.676;9.034;2023-03-31T06:45:01;10.50;;;7.47;;
944;SDS011;459;48.676;9.034;2023-03-31T06:47:26;11.33;;;9.90;;
944;SDS011;459;48.676;9.034;2023-03-31T06:49:51;10.23;;;7.53;;
944;SDS011;459;48.676;9.034;2023-03-31T06:52:17;7.47;;;5.77;;
944;SDS011;459;48.676;9.034;2023-03-31T06:54:42;8.27;;;6.70;;
944;SDS011;459;48.676;9.034;2023-03-31T06:57:07;9.37;;;7.53;;
944;SDS011;459;48.676;9.034;2023-03-31T06:59:32;6.80;;;5.77;;
944;SDS011;459;48.676;9.034;2023-03-31T07:01:57;5.70;;;5.20;;
944;SDS011;459;48.676;9.034;2023-03-31T07:04:22;6.27;;;5.10;;
944;SDS011;459;48.676;9.034;2023-03-31T07:06:48;4.73;;;3.47;;
944;SDS011;459;48.676;9.034;2023-03-31T07:09:13;5.87;;;5.27;;
944;SDS011;459;48.676;9.034;2023-03-31T07:11:38;9.20;;;4.70;;
944;SDS011;459;48.676;9.034;2023-03-31T07:14:03;5.33;;;4.83;;
944;SDS011;459;48.676;9.034;2023-03-31T07:16:28;5.00;;;3.07;;
944;SDS011;459;48.676;9.034;2023-03-31T07:18:55;2.60;;;2.40;;
944;SDS011;459;48.676;9.034;2023-03-31T07:21:23;2.00;;;1.90;;
944;SDS011;459;48.676;9.034;2023-03-31T07:23:48;3.80;;;3.00;;
944;SDS011;459;48.676;9.034;2023-03-31T07:26:13;2.40;;;2.20;;
944;SDS011;459;48.676;9.034;2023-03-31T07:28:38;2.20;;;2.10;;
944;SDS011;459;48.676;9.034;2023-03-31T07:31:09;2.53;;;1.57;;
944;SDS011;459;48.676;9.034;2023-03-31T07:33:34;1.40;;;1.30;;
944;SDS011;459;48.676;9.034;2023-03-31T07:36:02;1.83;;;1.50;;
944;SDS011;459;48.676;9.034;2023-03-31T07:38:28;2.20;;;1.63;;
944;SDS011;459;48.676;9.034;2023-03-31T07:40:53;1.23;;;1.00;;
944;SDS011;459;48.676;9.034;2023-03-31T07:43:18;1.10;;;1.10;;
944;SDS011;459;48.676;9.034;2023-03-31T07:45:43;3.00;;;1.87;;
944;SDS011;459;48.676;9.034;2023-03-31T07:48:08;1.00;;;0.90;;
944;SDS011;459;48.676;9.034;2023-03-31T07:50:33;1.63;;;1.10;;
944;SDS011;459;48.676;9.034;2023-03-31T07:52:59;1.77;;;1.33;;
944;SDS011;459;48.676;9.034;2023-03-31T07:55:24;0.77;;;0.70;;
944;SDS011;459;48.676;9.034;2023-03-31T07:57:50;1.17;;;1.00;;
944;SDS011;459;48.676;9.034;2023-03-31T08:00:16;1.37;;;0.80;;
944;SDS011;459;48.676;9.034;2023-03-31T08:02:41;0.60;;;0.60;;
944;SDS011;459;48.676;9.034;2023-03-31T08:05:07;0.80;;;0.73;;
944;SDS011;459;48.676;9.034;2023-03-31T08:07:33;0.87;;;0.87;;
944;SDS011;459;48.676;9.034;2023-03-31T08:09:58;1.10;;;0.90;;
944;SDS011;459;48.676;9.034;2023-03-31T08:12:23;1.63;;;0.60;;
944;SDS011;459;48.676;9.034;2023-03-31T08:14:49;1.80;;;1.00;;
944;SDS011;459;48.676;9.034;2023-03-31T08:17:14;1.67;;;1.00;;
944;SDS011;459;48.676;9.034;2023-03-31T08:19:40;1.50;;;1.10;;
944;SDS011;459;48.676;9.034;2023-03-31T08:22:05;0.80;;;0.80;;
944;SDS011;459;48.676;9.034;2023-03-31T08:24:30;1.07;;;0.87;;
944;SDS011;459;48.676;9.034;2023-03-31T08:26:55;0.90;;;0.90;;
944;SDS011;459;48.676;9.034;2023-03-31T08:29:21;1.37;;;0.90;;
944;SDS011;459;48.676;9.034;2023-03-31T08:31:46;1.90;;;1.10;;
944;SDS011;459;48.676;9.034;2023-03-31T08:34:11;4.23;;;2.10;;
944;SDS011;459;48.676;9.034;2023-03-31T08:36:36;1.85;;;1.15;;
944;SDS011;459;48.676;9.034;2023-03-31T08:39:01;0.90;;;0.90;;
944;SDS011;459;48.676;9.034;2023-03-31T08:41:50;6.67;;;1.57;;
944;SDS011;459;48.676;9.034;2023-03-31T08:44:32;5.10;;;1.10;;
944;SDS011;459;48.676;9.034;2023-03-31T08:46:58;2.90;;;1.23;;
944;SDS011;459;48.676;9.034;2023-03-31T08:49:25;2.63;;;2.10;;
944;SDS011;459;48.676;9.034;2023-03-31T08:51:54;1.73;;;1.17;;
944;SDS011;459;48.676;9.034;2023-03-31T08:54:26;1.10;;;0.90;;
944;SDS011;459;48.676;9.034;2023-03-31T08:56:53;1.77;;;1.10;;
944;SDS011;459;48.676;9.034;2023-03-31T08:59:25;1.70;;;1.30;;
944;SDS011;459;48.676;9.034;2023-03-31T09:02:02;1.97;;;1.20;;
944;SDS011;459;48.676;9.034;2023-03-31T09:12:34;1.37;;;0.83;;
944;SDS011;459;48.676;9.034;2023-03-31T09:15:03;1.40;;;1.27;;
944;SDS011;459;48.676;9.034;2023-03-31T09:17:32;0.50;;;0.40;;
944;SDS011;459;48.676;9.034;2023-03-31T09:20:00;3.23;;;0.90;;
944;SDS011;459;48.676;9.034;2023-03-31T09:22:32;3.67;;;1.03;;
944;SDS011;459;48.676;9.034;2023-03-31T09:25:07;0.60;;;0.60;;
944;SDS011;459;48.676;9.034;2023-03-31T09:27:34;2.23;;;1.27;;
944;SDS011;459;48.676;9.034;2023-03-31T09:30:09;1.00;;;0.80;;
944;SDS011;459;48.676;9.034;2023-03-31T09:32:37;1.67;;;1.20;;
944;SDS011;459;48.676;9.034;2023-03-31T09:35:16;5.40;;;1.70;;
944;SDS011;459;48.676;9.034;2023-03-31T09:37:41;5.53;;;1.40;;
944;SDS011;459;48.676;9.034;2023-03-31T09:40:07;1.10;;;0.90;;
944;SDS011;459;48.676;9.034;2023-03-31T09:42:38;3.87;;;1.43;;
944;SDS011;459;48.676;9.034;2023-03-31T09:45:04;1.23;;;1.00;;
944;SDS011;459;48.676;9.034;2023-03-31T09:47:37;2.67;;;1.63;;
944;SDS011;459;48.676;9.034;2023-03-31T09:50:05;2.10;;;1.23;;
944;SDS011;459;48.676;9.034;2023-03-31T09:52:32;1.33;;;1.00;;
944;SDS011;459;48.676;9.034;2023-03-31T09:54:59;3.63;;;0.90;;
944;SDS011;459;48.676;9.034;2023-03-31T09:57:32;1.20;;;0.90;;
944;SDS011;459;48.676;9.034;2023-03-31T10:02:41;3.90;;;1.80;;
944;SDS011;459;48.676;9.034;2023-03-31T10:05:17;2.70;;;1.10;;
944;SDS011;459;48.676;9.034;2023-03-31T10:07:43;2.40;;;1.30;;
944;SDS011;459;48.676;9.034;2023-03-31T10:10:09;5.60;;;1.27;;
944;SDS011;459;48.676;9.034;2023-03-31T10:12:36;6.67;;;1.90;;
944;SDS011;459;48.676;9.034;2023-03-31T10:15:10;4.10;;;1.77;;
944;SDS011;459;48.676;9.034;2023-03-31T10:17:39;3.27;;;1.17;;
944;SDS011;459;48.676;9.034;2023-03-31T10:20:16;4.53;;;1.00;;
944;SDS011;459;48.676;9.034;2023-03-31T10:22:43;2.93;;;1.37;;
944;SDS011;459;48.676;9.034;2023-03-31T10:25:23;7.60;;;1.70;;
944;SDS011;459;48.676;9.034;2023-03-31T10:27:52;3.60;;;1.03;;
944;SDS011;459;48.676;9.034;2023-03-31T10:30:21;3.50;;;1.07;;
944;SDS011;459;48.676;9.034;2023-03-31T10:32:47;4.97;;;0.97;;
944;SDS011;459;48.676;9.034;2023-03-31T10:37:37;3.08;;;1.38;;
944;SDS011;459;48.676;9.034;2023-03-31T10:40:04;6.40;;;1.87;;
944;SDS011;459;48.676;9.034;2023-03-31T10:42:37;4.87;;;2.30;;
944;SDS011;459;48.676;9.034;2023-03-31T10:45:36;2.57;;;0.90;;
944;SDS011;459;48.676;9.034;2023-03-31T10:47:55;7.90;;;1.43;;
944;SDS011;459;48.676;9.034;2023-03-31T10:50:25;3.97;;;1.40;;
944;SDS011;459;48.676;9.034;2023-03-31T10:52:51;4.27;;;1.63;;
944;SDS011;459;48.676;9.034;2023-03-31T10:55:27;3.97;;;1.50;;
944;SDS011;459;48.676;9.034;2023-03-31T10:57:55;2.07;;;1.20;;
944;SDS011;459;48.676;9.034;2023-03-31T11:00:31;6.00;;;1.97;;
944;SDS011;459;48.676;9.034;2023-03-31T11:10:20;5.17;;;1.60;;
944;SDS011;459;48.676;9.034;2023-03-31T11:18:02;2.53;;;1.10;;
944;SDS011;459;48.676;9.034;2023-03-31T11:20:35;1.73;;;0.80;;
944;SDS011;459;48.676;9.034;2023-03-31T11:30:48;0.50;;;0.50;;
944;SDS011;459;48.676;9.034;2023-03-31T11:33:23;0.73;;;0.73;;
944;SDS011;459;48.676;9.034;2023-03-31T11:36:04;0.93;;;0.63;;
944;SDS011;459;48.676;9.034;2023-03-31T11:38:37;0.93;;;0.67;;
944;SDS011;459;48.676;9.034;2023-03-31T11:41:07;3.40;;;1.63;;
944;SDS011;459;48.676;9.034;2023-03-31T11:43:45;0.40;;;0.30;;
944;SDS011;459;48.676;9.034;2023-03-31T11:46:14;0.50;;;0.40;;
944;SDS011;459;48.676;9.034;2023-03-31T11:51:09;1.17;;;0.50;;
944;SDS011;459;48.676;9.034;2023-03-31T11:53:36;0.50;;;0.50;;
944;SDS011;459;48.676;9.034;2023-03-31T11:56:02;0.57;;;0.50;;
944;SDS011;459;48.676;9.034;2023-03-31T11:58:32;2.73;;;0.63;;
944;SDS011;459;48.676;9.034;2023-03-31T12:01:08;0.40;;;0.30;;
944;SDS011;459;48.676;9.034;2023-03-31T12:06:23;0.50;;;0.33;;
944;SDS011;459;48.676;9.034;2023-03-31T12:09:00;0.50;;;0.50;;
944;SDS011;459;48.676;9.034;2023-03-31T12:14:20;1.47;;;0.57;;
944;SDS011;459;48.676;9.034;2023-03-31T12:16:48;1.53;;;0.70;;
944;SDS011;459;48.676;9.034;2023-03-31T12:21:41;0.67;;;0.60;;
944;SDS011;459;48.676;9.034;2023-03-31T12:24:10;1.60;;;0.60;;
944;SDS011;459;48.676;9.034;2023-03-31T12:29:15;1.13;;;0.50;;
944;SDS011;459;48.676;9.034;2023-03-31T12:31:41;2.10;;;0.60;;
944;SDS011;459;48.676;9.034;2023-03-31T12:34:09;2.73;;;0.70;;
944;SDS011;459;48.676;9.034;2023-03-31T12:36:52;2.10;;;0.60;;
944;SDS011;459;48.676;9.034;2023-03-31T12:42:24;2.70;;;0.50;;
944;SDS011;459;48.676;9.034;2023-03-31T12:45:00;1.43;;;0.40;;
944;SDS011;459;48.676;9.034;2023-03-31T12:52:36;1.20;;;0.80;;
944;SDS011;459;48.676;9.034;2023-03-31T12:55:20;1.33;;;0.73;;
944;SDS011;459;48.676;9.034;2023-03-31T12:57:48;0.83;;;0.63;;
944;SDS011;459;48.676;9.034;2023-03-31T13:00:17;2.00;;;0.80;;
944;SDS011;459;48.676;9.034;2023-03-31T13:02:43;2.73;;;1.10;;
944;SDS011;459;48.676;9.034;2023-03-31T13:07:52;4.53;;;1.50;;
944;SDS011;459;48.676;9.034;2023-03-31T13:13:02;1.47;;;0.70;;
944;SDS011;459;48.676;9.034;2023-03-31T13:15:28;2.63;;;1.90;;
944;SDS011;459;48.676;9.034;2023-03-31T13:18:01;3.37;;;1.53;;
944;SDS011;459;48.676;9.034;2023-03-31T13:23:13;5.23;;;2.10;;
944;SDS011;459;48.676;9.034;2023-03-31T13:33:14;0.90;;;0.37;;
944;SDS011;459;48.676;9.034;2023-03-31T13:35:44;4.57;;;0.60;;
944;SDS011;459;48.676;9.034;2023-03-31T13:38:29;2.57;;;0.80;;
944;SDS011;459;48.676;9.034;2023-03-31T13:41:09;0.73;;;0.40;;
944;SDS011;459;48.676;9.034;2023-03-31T13:43:56;1.53;;;0.70;;
944;SDS011;459;48.676;9.034;2023-03-31T13:46:30;0.73;;;0.60;;
944;SDS011;459;48.676;9.034;2023-03-31T13:51:54;1.47;;;0.40;;
944;SDS011;459;48.676;9.034;2023-03-31T14:07:45;0.30;;;0.20;;
944;SDS011;459;48.676;9.034;2023-03-31T14:10:29;0.40;;;0.20;;
944;SDS011;459;48.676;9.034;2023-03-31T14:13:08;0.40;;;0.20;;
944;SDS011;459;48.676;9.034;2023-03-31T14:15:35;0.40;;;0.20;;
944;SDS011;459;48.676;9.034;2023-03-31T14:18:02;0.40;;;0.20;;
944;SDS011;459;48.676;9.034;2023-03-31T14:20:32;0.40;;;0.20;;
944;SDS011;459;48.676;9.034;2023-03-31T14:25:50;0.40;;;0.20;;
944;SDS011;459;48.676;9.034;2023-03-31T14:35:54;0.40;;;0.20;;
944;SDS011;459;48.676;9.034;2023-03-31T14:38:22;0.40;;;0.20;;
944;SDS011;459;48.676;9.034;2023-03-31T14:40:51;0.40;;;0.20;;
944;SDS011;459;48.676;9.034;2023-03-31T14:43:31;0.40;;;0.20;;
944;SDS011;459;48.676;9.034;2023-03-31T14:46:03;0.40;;;0.20;;
944;SDS011;459;48.676;9.034;2023-03-31T14:48:30;0.40;;;0.20;;
944;SDS011;459;48.676;9.034;2023-03-31T14:50:57;0.40;;;0.20;;
944;SDS011;459;48.676;9.034;2023-03-31T14:53:23;0.40;;;0.20;;
944;SDS011;459;48.676;9.034;2023-03-31T14:55:49;0.40;;;0.20;;
944;SDS011;459;48.676;9.034;2023-03-31T14:58:22;0.40;;;0.20;;
944;SDS011;459;48.676;9.034;2023-03-31T15:00:49;0.40;;;0.20;;
944;SDS011;459;48.676;9.034;2023-03-31T15:03:16;0.40;;;0.20;;
944;SDS011;459;48.676;9.034;2023-03-31T15:05:41;0.40;;;0.20;;
944;SDS011;459;48.676;9.034;2023-03-31T15:08:11;0.40;;;0.20;;
944;SDS011;459;48.676;9.034;2023-03-31T15:10:44;0.40;;;0.20;;
944;SDS011;459;48.676;9.034;2023-03-31T15:13:16;0.40;;;0.20;;
944;SDS011;459;48.676;9.034;2023-03-31T15:15:42;0.40;;;0.20;;
944;SDS011;459;48.676;9.034;2023-03-31T15:18:11;0.40;;;0.20;;
944;SDS011;459;48.676;9.034;2023-03-31T15:20:38;0.40;;;0.20;;
944;SDS011;459;48.676;9.034;2023-03-31T15:23:19;0.40;;;0.20;;
944;SDS011;459;48.676;9.034;2023-03-31T15:25:48;0.40;;;0.20;;
944;SDS011;459;48.676;9.034;2023-03-31T15:28:14;0.40;;;0.30;;
944;SDS011;459;48.676;9.034;2023-03-31T15:30:39;0.40;;;0.20;;
944;SDS011;459;48.676;9.034;2023-03-31T15:33:05;1.13;;;0.73;;
944;SDS011;459;48.676;9.034;2023-03-31T15:35:31;0.80;;;0.60;;
944;SDS011;459;48.676;9.034;2023-03-31T15:37:58;1.40;;;0.97;;
944;SDS011;459;48.676;9.034;2023-03-31T15:40:28;1.03;;;0.60;;
944;SDS011;459;48.676;9.034;2023-03-31T15:42:58;1.83;;;0.90;;
944;SDS011;459;48.676;9.034;2023-03-31T15:47:54;1.23;;;0.60;;
944;SDS011;459;48.676;9.034;2023-03-31T15:50:20;0.60;;;0.60;;
944;SDS011;459;48.676;9.034;2023-03-31T15:55:27;2.17;;;0.70;;
944;SDS011;459;48.676;9.034;2023-03-31T15:57:54;3.00;;;0.97;;
944;SDS011;459;48.676;9.034;2023-03-31T16:02:57;1.17;;;1.07;;
944;SDS011;459;48.676;9.034;2023-03-31T16:05:39;1.90;;;0.53;;
944;SDS011;459;48.676;9.034;2023-03-31T16:08:09;0.90;;;0.80;;
944;SDS011;459;48.676;9.034;2023-03-31T16:10:36;2.07;;;0.77;;
944;SDS011;459;48.676;9.034;2023-03-31T16:13:02;1.80;;;0.77;;
944;SDS011;459;48.676;9.034;2023-03-31T16:15:30;1.00;;;0.80;;
944;SDS011;459;48.676;9.034;2023-03-31T16:17:58;1.30;;;0.90;;
944;SDS011;459;48.676;9.034;2023-03-31T16:20:26;3.60;;;0.80;;
944;SDS011;459;48.676;9.034;2023-03-31T16:22:53;3.07;;;0.90;;
944;SDS011;459;48.676;9.034;2023-03-31T16:25:21;2.23;;;0.90;;
944;SDS011;459;48.676;9.034;2023-03-31T16:27:47;1.20;;;0.70;;
944;SDS011;459;48.676;9.034;2023-03-31T16:30:15;1.17;;;0.50;;
944;SDS011;459;48.676;9.034;2023-03-31T16:35:28;3.03;;;0.87;;
944;SDS011;459;48.676;9.034;2023-03-31T16:37:54;2.30;;;0.73;;
944;SDS011;459;48.676;9.034;2023-03-31T16:40:19;1.47;;;0.50;;
944;SDS011;459;48.676;9.034;2023-03-31T16:42:45;1.63;;;0.70;;
944;SDS011;459;48.676;9.034;2023-03-31T16:45:10;0.57;;;0.57;;
944;SDS011;459;48.676;9.034;2023-03-31T16:47:36;1.67;;;0.53;;
944;SDS011;459;48.676;9.034;2023-03-31T16:50:01;1.50;;;1.00;;
944;SDS011;459;48.676;9.034;2023-03-31T16:52:30;0.80;;;0.60;;
944;SDS011;459;48.676;9.034;2023-03-31T16:54:56;1.80;;;0.77;;
944;SDS011;459;48.676;9.034;2023-03-31T16:57:21;0.90;;;0.60;;
944;SDS011;459;48.676;9.034;2023-03-31T16:59:46;1.60;;;0.60;;
944;SDS011;459;48.676;9.034;2023-03-31T17:02:12;0.63;;;0.53;;
944;SDS011;459;48.676;9.034;2023-03-31T17:04:37;1.47;;;1.10;;
944;SDS011;459;48.676;9.034;2023-03-31T17:07:02;2.30;;;0.50;;
944;SDS011;459;48.676;9.034;2023-03-31T17:09:27;2.57;;;0.80;;
944;SDS011;459;48.676;9.034;2023-03-31T17:11:52;3.40;;;1.10;;
944;SDS011;459;48.676;9.034;2023-03-31T17:14:18;7.47;;;2.07;;
944;SDS011;459;48.676;9.034;2023-03-31T17:16:43;1.27;;;0.57;;
944;SDS011;459;48.676;9.034;2023-03-31T17:19:08;2.60;;;1.13;;
944;SDS011;459;48.676;9.034;2023-03-31T17:21:34;2.00;;;1.07;;
944;SDS011;459;48.676;9.034;2023-03-31T17:24:01;1.10;;;0.80;;
944;SDS011;459;48.676;9.034;2023-03-31T17:26:27;1.30;;;0.80;;
944;SDS011;459;48.676;9.034;2023-03-31T17:28:52;2.83;;;0.90;;
944;SDS011;459;48.676;9.034;2023-03-31T17:31:18;1.50;;;1.00;;
944;SDS011;459;48.676;9.034;2023-03-31T17:33:44;1.43;;;0.80;;
944;SDS011;459;48.676;9.034;2023-03-31T17:36:10;1.37;;;0.80;;
944;SDS011;459;48.676;9.034;2023-03-31T17:38:35;0.83;;;0.60;;
944;SDS011;459;48.676;9.034;2023-03-31T17:41:03;1.07;;;0.80;;
944;SDS011;459;48.676;9.034;2023-03-31T17:43:28;4.23;;;0.80;;
944;SDS011;459;48.676;9.034;2023-03-31T17:46:03;1.60;;;1.33;;
944;SDS011;459;48.676;9.034;2023-03-31T17:48:29;0.83;;;0.70;;
944;SDS011;459;48.676;9.034;2023-03-31T17:50:54;3.60;;;1.17;;
944;SDS011;459;48.676;9.034;2023-03-31T17:53:19;3.80;;;1.03;;
944;SDS011;459;48.676;9.034;2023-03-31T17:55:44;0.83;;;0.67;;
944;SDS011;459;48.676;9.034;2023-03-31T17:58:10;4.83;;;1.33;;
944;SDS011;459;48.676;9.034;2023-03-31T18:00:37;1.00;;;0.80;;
944;SDS011;459;48.676;9.034;2023-03-31T18:03:03;2.70;;;1.27;;
944;SDS011;459;48.676;9.034;2023-03-31T18:05:28;5.90;;;3.53;;
944;SDS011;459;48.676;9.034;2023-03-31T18:07:53;3.43;;;1.30;;